WetterOnline ( https://www.wetteronline.ch )

Wetter aktuell Beeskow

Aktuelles Wetter: Lindenberg b. Beeskow (104m)

6-stündlich | Neueste Meldungen
Ortszeit Temperatur Wetter
Di, 23.07. 8:00 20.1° C fast wolkenlos
Di, 23.07. 2:00 18.9° C bewölkt
Mo, 22.07. 20:00 21.1° C Sprühregen
Mo, 22.07. 14:00 23.5° C wolkig
Mo, 22.07. 8:00 19.0° C leicht bewölkt
Mo, 22.07. 2:00 16.3° C leicht bewölkt
So, 21.07. 20:00 24.3° C fast wolkenlos
So, 21.07. 14:00 23.0° C leicht bewölkt
Ortszeit Temperatur Wetter
Di, 23.07. 9:30 21.8° C leicht bewölkt
Di, 23.07. 9:20 21.8° C fast wolkenlos
Di, 23.07. 9:10 21.8° C wolkenlos
Di, 23.07. 9:00 21.7° C fast wolkenlos
Di, 23.07. 8:50 21.7° C wolkenlos
Di, 23.07. 8:40 21.1° C wolkenlos
Di, 23.07. 8:30 20.7° C fast wolkenlos
Di, 23.07. 8:00 20.1° C fast wolkenlos
Di, 23.07. 7:30 19.4° C wolkenlos
Di, 23.07. 7:00 19.4° C wolkenlos
Di, 23.07. 6:30 18.1° C fast wolkenlos
Ortszeit Relative Feuchte Sichtweite
Di, 23.07. 8:00 78% 30 km
Di, 23.07. 2:00 81% 20 km
Mo, 22.07. 20:00 67% 25 km
Mo, 22.07. 14:00 53% 50 km
Mo, 22.07. 8:00 77% 35 km
Mo, 22.07. 2:00 84% 35 km
So, 21.07. 20:00 49% 40 km
So, 21.07. 14:00 60% 40 km
Ortszeit Relative Feuchte Sichtweite
Di, 23.07. 9:30 71% 40 km
Di, 23.07. 9:20 71% -
Di, 23.07. 9:10 71% -
Di, 23.07. 9:00 73% 35 km
Di, 23.07. 8:50 73% -
Di, 23.07. 8:40 73% -
Di, 23.07. 8:30 76% 35 km
Di, 23.07. 8:00 78% 30 km
Di, 23.07. 7:30 80% 25 km
Di, 23.07. 7:00 80% 25 km
Di, 23.07. 6:30 84% 20 km
Ortszeit Niederschlagsmenge Niederschlagsart
Di, 23.07. 8:00 0.2 l/m2 in 12 Std. -
Di, 23.07. 2:00 0.2 l/m2 in 6 Std. Regen
Mo, 22.07. 20:00 0.1 l/m2 in 12 Std. Regen
Mo, 22.07. 14:00 0.0 l/m2 in 6 Std. -
Mo, 22.07. 8:00 0.1 l/m2 in 12 Std. -
Mo, 22.07. 2:00 0.0 l/m2 in 6 Std. -
So, 21.07. 20:00 0.0 l/m2 in 12 Std. -
So, 21.07. 14:00 0.0 l/m2 in 6 Std. -
Ortszeit Niederschlagsmenge Niederschlagsart
Di, 23.07. 9:30 0.0 l/m2 in 1 Std. -
Di, 23.07. 9:20 keine Meldung -
Di, 23.07. 9:10 keine Meldung -
Di, 23.07. 9:00 0.0 l/m2 in 1 Std. -
Di, 23.07. 8:50 keine Meldung -
Di, 23.07. 8:40 keine Meldung -
Di, 23.07. 8:30 0.0 l/m2 in 1 Std. -
Di, 23.07. 8:00 0.0 l/m2 in 1 Std. -
Di, 23.07. 7:30 0.0 l/m2 in 1 Std. -
Di, 23.07. 7:00 0.0 l/m2 in 1 Std. -
Di, 23.07. 6:30 0.0 l/m2 in 1 Std. -
Ortszeit Stärke Spitze Richtung
km/h Bft. km/h Grad Sektor
Di, 23.07. 8:00 13 3 19 300° NW
Di, 23.07. 2:00 7 2 14 180° S
Mo, 22.07. 20:00 7 2 29 310° NW
Mo, 22.07. 14:00 13 3 22 290° W
Mo, 22.07. 8:00 0 0 11 - -
Mo, 22.07. 2:00 6 1 17 350° N
So, 21.07. 20:00 11 2 36 290° W
So, 21.07. 14:00 14 3 32 280° W
Ortszeit Stärke Spitze Richtung
km/h Bft. km/h Grad Sektor
Di, 23.07. 9:30 11 2 22 290° W
Di, 23.07. 9:20 11 2 - 290° W
Di, 23.07. 9:10 11 2 - 290° W
Di, 23.07. 9:00 9 2 20 300° NW
Di, 23.07. 8:50 9 2 - 300° NW
Di, 23.07. 8:40 9 2 - 300° NW
Di, 23.07. 8:30 13 3 20 290° W
Di, 23.07. 8:00 13 3 19 300° NW
Di, 23.07. 7:30 11 2 18 300° NW
Di, 23.07. 7:00 9 2 19 310° NW
Di, 23.07. 6:30 9 2 19 300° NW
Ortszeit Untergrenze Bedeckung Gattung
total tief tief mittel hoch
Di, 23.07. 8:00 3900 m 1/8 1/8 - Ac -
Di, 23.07. 2:00 1260 m 7/8 7/8 Sc - -
Mo, 22.07. 20:00 1500 m 8/8 7/8 Sc - -
Mo, 22.07. 14:00 1500 m 8/8 4/8 Cu As -
Mo, 22.07. 8:00 9000 m 6/8 0/8 - - Cs
Mo, 22.07. 2:00 1800 m 3/8 1/8 Sc - Ci
So, 21.07. 20:00 1800 m 2/8 1/8 Cu - Ci
So, 21.07. 14:00 900 m 3/8 3/8 Cu - -
Ortszeit Bedeckungsgrad in Achtel und Wolkenuntergrenze
Di, 23.07. 9:30 2(630m)
Di, 23.07. 9:20 1(660m)
Di, 23.07. 9:10 keine Wolken
Di, 23.07. 9:00 1(600m)
Di, 23.07. 8:50 keine Wolken
Di, 23.07. 8:40 keine Wolken
Di, 23.07. 8:30 1(600m)
Di, 23.07. 8:00 1(3900m)
Di, 23.07. 7:30 keine Wolken
Di, 23.07. 7:00 keine Wolken
Di, 23.07. 6:30 1(900m)
Ortszeit Luftdruck NN (hPa) Tendenz (hPa in 3 Std.)
Di, 23.07. 8:00 1022 + 0,3
Di, 23.07. 2:00 1022 + 0,2
Mo, 22.07. 20:00 1022 - 0,1
Mo, 22.07. 14:00 1023 - 0,3
Mo, 22.07. 8:00 1023 + 0,1
Mo, 22.07. 2:00 1022 + 0,8
So, 21.07. 20:00 1019 + 1,0
So, 21.07. 14:00 1018 + 0,7
Ortszeit Luftdruck NN (hPa) Tendenz (hPa in 3 Std.)
Di, 23.07. 9:30 1022 + 0,3
Di, 23.07. 9:20 1022 keine Meldung
Di, 23.07. 9:10 1022 keine Meldung
Di, 23.07. 9:00 1022 + 0,2
Di, 23.07. 8:50 1022 keine Meldung
Di, 23.07. 8:40 1022 keine Meldung
Di, 23.07. 8:30 1022 + 0,3
Di, 23.07. 8:00 1022 + 0,3
Di, 23.07. 7:30 1022 + 0,2
Di, 23.07. 7:00 1022 + 0,1
Di, 23.07. 6:30 1022 0,0
Ortszeit Schneehöhe (cm)
Di, 23.07. 8:00 0
Di, 23.07. 2:00 0
Mo, 22.07. 20:00 0
Mo, 22.07. 14:00 0
Mo, 22.07. 8:00 0
Mo, 22.07. 2:00 0
So, 21.07. 20:00 0
So, 21.07. 14:00 0
Ortszeit Schneehöhe (cm)
Di, 23.07. 9:30 -
Di, 23.07. 9:20 -
Di, 23.07. 9:10 -
Di, 23.07. 9:00 -
Di, 23.07. 8:50 -
Di, 23.07. 8:40 -
Di, 23.07. 8:30 -
Di, 23.07. 8:00 0
Di, 23.07. 7:30 -
Di, 23.07. 7:00 -
Di, 23.07. 6:30 -
Link zu dieser Seite / Seite empfehlen

Das Wetter in ...